Time;durP1;ratioP1;P1;durP2;ratioP2;P2;SDS_P1;SDS_P2;PMS_P1;PMS_P2;Temp;Humidity;BMP_temperature;BMP_pressure;BME280_temperature;BME280_humidity;BME280_pressure;Samples;Min_cycle;Max_cycle;Signal;HPM_P1;HPM_P2
2022/06/01 00:00:08;;;;;;;5.50;4.35;;;12.50;99.90;;;;;;5047472;28;20044;-65
2022/06/01 00:02:37;;;;;;;7.85;4.80;;;12.40;99.90;;;;;;5043985;28;20026;-65
2022/06/01 00:05:05;;;;;;;5.22;4.60;;;12.40;99.90;;;;;;5073920;22;20048;-67
2022/06/01 00:07:32;;;;;;;4.38;3.38;;;12.40;99.90;;;;;;5075209;28;20059;-65
2022/06/01 00:09:58;;;;;;;4.18;3.42;;;12.40;99.90;;;;;;5071504;28;20551;-67
2022/06/01 00:12:25;;;;;;;6.80;3.45;;;12.20;99.90;;;;;;5072316;28;20048;-67
2022/06/01 00:14:52;;;;;;;4.85;3.50;;;12.20;99.90;;;;;;5079886;28;20052;-67
2022/06/01 00:17:20;;;;;;;5.07;3.72;;;12.20;99.90;;;;;;5068832;28;20494;-66
2022/06/01 00:19:47;;;;;;;4.25;3.35;;;12.10;99.90;;;;;;5091604;28;20036;-65
2022/06/01 00:22:17;;;;;;;6.80;3.92;;;12.10;99.90;;;;;;5088346;28;20032;-67
2022/06/01 00:24:45;;;;;;;5.18;3.65;;;12.00;99.90;;;;;;5080933;28;20053;-65
2022/06/01 00:27:14;;;;;;;5.35;3.22;;;12.10;99.90;;;;;;5083631;28;20052;-67
2022/06/01 00:29:41;;;;;;;6.88;3.80;;;12.10;99.90;;;;;;5070438;28;20059;-65
2022/06/01 00:32:11;;;;;;;7.57;3.30;;;12.00;99.90;;;;;;5085003;28;20097;-68
2022/06/01 00:34:39;;;;;;;4.78;3.20;;;12.00;99.90;;;;;;5076412;28;20059;-67
2022/06/01 00:37:08;;;;;;;4.20;2.95;;;12.00;99.90;;;;;;5084846;28;20568;-67
2022/06/01 00:39:35;;;;;;;4.30;2.92;;;12.00;99.90;;;;;;5091888;28;20093;-67
2022/06/01 00:42:30;;;;;;;7.30;3.72;;;11.90;99.90;;;;;;5088806;28;20059;-67
2022/06/01 00:44:57;;;;;;;6.07;4.18;;;11.90;99.90;;;;;;5069362;28;20059;-67
2022/06/01 00:47:25;;;;;;;;;;;11.90;99.90;;;;;;5072169;28;20052;-67
2022/06/01 00:50:08;;;;;;;5.00;4.10;;;12.00;99.90;;;;;;5071121;28;19920;-66
2022/06/01 00:52:40;;;;;;;7.10;5.00;;;12.00;99.90;;;;;;5079751;28;20040;-68
2022/06/01 00:55:21;;;;;;;5.70;3.20;;;12.00;99.90;;;;;;5084722;28;20105;-67
2022/06/01 00:57:51;;;;;;;3.80;2.45;;;12.00;99.90;;;;;;5091937;28;20047;-67
2022/06/01 01:00:25;;;;;;;4.50;2.75;;;11.90;99.90;;;;;;5085898;28;20094;-67
2022/06/01 01:02:55;;;;;;;4.28;2.50;;;11.90;99.90;;;;;;5082082;28;20056;-67
2022/06/01 01:05:24;;;;;;;5.13;3.28;;;11.90;99.90;;;;;;5091072;28;20054;-64
2022/06/01 01:07:53;;;;;;;3.65;2.88;;;11.80;99.90;;;;;;5091662;28;20040;-64
2022/06/01 01:10:20;;;;;;;3.90;1.98;;;11.80;99.90;;;;;;5080515;28;20044;-67
2022/06/01 01:12:56;;;;;;;;;;;11.90;99.90;;;;;;5090380;28;20047;-67
2022/06/01 01:15:28;;;;;;;2.50;2.25;;;11.80;99.90;;;;;;5091547;28;19920;-65
2022/06/01 01:17:54;;;;;;;3.42;1.90;;;11.80;99.90;;;;;;5084346;28;20554;-67
2022/06/01 01:20:23;;;;;;;3.05;2.10;;;11.80;99.90;;;;;;5085992;28;20499;-65
2022/06/01 01:22:55;;;;;;;6.00;2.30;;;11.80;99.90;;;;;;5091520;28;20047;-67
2022/06/01 01:25:28;;;;;;;4.32;1.95;;;11.80;99.90;;;;;;5083445;28;20044;-67
2022/06/01 01:27:58;;;;;;;4.00;1.90;;;11.80;99.90;;;;;;5083026;28;20097;-67
2022/06/01 01:30:27;;;;;;;3.72;2.42;;;11.80;99.90;;;;;;5091132;28;20438;-67
2022/06/01 01:32:54;;;;;;;2.40;2.20;;;11.80;99.90;;;;;;5088641;28;20119;-67
2022/06/01 01:35:21;;;;;;;4.28;2.25;;;11.80;99.90;;;;;;5082766;28;20408;-67
2022/06/01 01:37:50;;;;;;;5.15;2.50;;;11.80;99.90;;;;;;5091155;28;20093;-67
2022/06/01 01:40:17;;;;;;;2.88;2.30;;;11.80;99.90;;;;;;5090950;28;20040;-67
2022/06/01 01:42:45;;;;;;;4.63;3.80;;;11.90;99.90;;;;;;5084231;28;20036;-67
2022/06/01 01:45:16;;;;;;;7.50;3.65;;;11.80;99.90;;;;;;5082825;28;20416;-67
2022/06/01 01:47:43;;;;;;;3.20;2.63;;;11.90;99.90;;;;;;5090982;28;20044;-67
2022/06/01 01:50:11;;;;;;;6.65;3.38;;;12.00;99.90;;;;;;5088767;28;20048;-67
2022/06/01 01:52:38;;;;;;;5.78;3.13;;;11.90;99.90;;;;;;5082627;28;20036;-67
2022/06/01 01:55:08;;;;;;;;;;;11.90;99.90;;;;;;5091746;28;20400;-67
2022/06/01 01:57:50;;;;;;;10.55;5.30;;;11.90;99.90;;;;;;5091473;28;20285;-67
2022/06/01 02:00:36;;;;;;;8.05;6.47;;;12.00;99.90;;;;;;5078986;28;20066;-66
2022/06/01 02:03:21;;;;;;;11.13;5.90;;;12.00;99.90;;;;;;5071231;28;20044;-67
2022/06/01 02:06:12;;;;;;;5.15;4.10;;;12.00;99.90;;;;;;5070957;28;20056;-67
2022/06/01 02:08:48;;;;;;;4.68;3.15;;;12.00;99.90;;;;;;5079081;28;20047;-64
2022/06/01 02:14:10;;;;;;;8.15;5.60;;;12.00;99.90;;;;;;5091225;28;20093;-67
2022/06/01 02:16:43;;;;;;;5.25;3.92;;;11.90;99.90;;;;;;5086094;28;20613;-67
2022/06/01 02:19:15;;;;;;;6.63;4.63;;;11.90;99.90;;;;;;5086529;28;20523;-64
2022/06/01 02:21:42;;;;;;;3.58;3.13;;;11.90;99.90;;;;;;5094604;28;20044;-67
2022/06/01 02:24:09;;;;;;;5.78;2.83;;;12.00;99.90;;;;;;5094851;28;20458;-67
2022/06/01 02:26:36;;;;;;;7.95;6.28;;;12.00;99.90;;;;;;5085108;28;20033;-67
2022/06/01 02:29:16;;;;;;;11.10;7.65;;;12.00;99.90;;;;;;5094869;28;20411;-67
2022/06/01 02:31:44;;;;;;;11.82;8.38;;;12.00;99.90;;;;;;5094359;28;20071;-68
2022/06/01 02:34:12;;;;;;;11.68;7.97;;;12.00;99.90;;;;;;5089211;28;20047;-67
2022/06/01 02:36:42;;;;;;;5.25;3.78;;;12.00;99.90;;;;;;5089779;28;20040;-67
2022/06/01 02:39:12;;;;;;;5.57;3.05;;;12.00;99.90;;;;;;5073224;28;20086;-65
2022/06/01 02:44:24;;;;;;;8.00;6.20;;;11.90;99.90;;;;;;5073989;28;20401;-67
2022/06/01 02:46:51;;;;;;;10.25;6.70;;;11.90;99.90;;;;;;5085158;28;20056;-68
2022/06/01 02:49:18;;;;;;;7.68;5.30;;;11.90;99.90;;;;;;5094454;28;20044;-67
2022/06/01 02:51:46;;;;;;;7.40;5.85;;;11.90;99.90;;;;;;5094022;28;20477;-68
2022/06/01 02:54:13;;;;;;;5.55;4.65;;;11.90;99.90;;;;;;5083417;28;20396;-68
2022/06/01 02:56:40;;;;;;;5.47;3.90;;;11.90;99.90;;;;;;5091906;28;20094;-67
2022/06/01 02:59:06;;;;;;;3.78;2.88;;;11.80;99.90;;;;;;5094232;28;20090;-67
2022/06/01 03:01:36;;;;;;;2.35;1.80;;;11.80;99.90;;;;;;5091232;28;20391;-68
2022/06/01 03:04:03;;;;;;;4.28;1.42;;;11.60;99.90;;;;;;5086374;28;20571;-67
2022/06/01 03:06:30;;;;;;;;;;;11.50;99.90;;;;;;5093266;28;20036;-65
2022/06/01 03:09:17;;;;;;;1.40;1.30;;;11.50;99.90;;;;;;5094078;28;19920;-68
2022/06/01 03:11:43;;;;;;;5.07;1.65;;;11.40;99.90;;;;;;5086296;28;20044;-67
2022/06/01 03:14:11;;;;;;;3.83;1.80;;;11.40;99.90;;;;;;5069475;28;20093;-66
2022/06/01 03:16:37;;;;;;;6.93;2.60;;;11.40;99.90;;;;;;5093903;28;20040;-65
2022/06/01 03:19:05;;;;;;;2.60;1.73;;;11.40;99.90;;;;;;5086074;28;20112;-67
2022/06/01 03:21:32;;;;;;;3.50;2.17;;;11.30;99.90;;;;;;5084978;28;20105;-67
2022/06/01 03:24:01;;;;;;;3.85;1.75;;;11.30;99.90;;;;;;5093507;28;20565;-67
2022/06/01 03:26:27;;;;;;;1.58;1.40;;;11.30;99.90;;;;;;5091649;28;20063;-67
2022/06/01 03:28:54;;;;;;;3.75;1.50;;;11.20;99.90;;;;;;5084473;28;20055;-67
2022/06/01 03:31:21;;;;;;;3.03;1.47;;;11.20;99.90;;;;;;5093252;28;20438;-67
2022/06/01 03:33:48;;;;;;;1.80;1.20;;;11.30;99.90;;;;;;5093604;28;20731;-67
2022/06/01 03:36:15;;;;;;;2.22;1.17;;;11.20;99.90;;;;;;5086420;28;20045;-68
2022/06/01 03:38:41;;;;;;;1.77;1.15;;;11.20;99.90;;;;;;5084897;28;20036;-67
2022/06/01 03:41:08;;;;;;;1.70;1.30;;;11.10;99.90;;;;;;5093060;28;20063;-67
2022/06/01 03:45:55;;;;;;;1.80;1.63;;;11.10;99.90;;;;;;5092198;28;20032;-67
2022/06/01 03:46:22;;;;;;;1.65;1.38;;;11.20;99.90;;;;;;5085138;28;20127;-67
2022/06/01 03:48:49;;;;;;;;;;;11.30;99.90;;;;;;5067088;28;20097;-68
2022/06/01 03:51:16;;;;;;;6.93;1.70;;;11.30;99.90;;;;;;5092841;28;19924;-67
2022/06/01 03:53:43;;;;;;;3.85;1.40;;;11.30;99.90;;;;;;5087739;28;20041;-68
2022/06/01 03:56:10;;;;;;;2.37;1.30;;;11.30;99.90;;;;;;5084591;28;20085;-67
2022/06/01 03:58:37;;;;;;;2.97;1.35;;;11.40;99.90;;;;;;5093120;28;20282;-68
2022/06/01 04:01:06;;;;;;;2.70;1.50;;;11.40;99.90;;;;;;5092683;28;20097;-68
2022/06/01 04:03:33;;;;;;;1.70;1.30;;;11.50;99.90;;;;;;5068283;28;20048;-67
2022/06/01 04:06:00;;;;;;;2.03;1.60;;;11.50;99.90;;;;;;5084317;28;20047;-65
2022/06/01 04:08:26;;;;;;;8.32;1.55;;;11.50;99.90;;;;;;5092910;28;20040;-67
2022/06/01 04:10:53;;;;;;;3.42;1.50;;;11.50;99.90;;;;;;5092459;28;20097;-68
2022/06/01 04:13:24;;;;;;;5.38;3.22;;;11.50;99.90;;;;;;5083207;28;20037;-68
2022/06/01 04:15:51;;;;;;;6.65;4.20;;;11.60;99.90;;;;;;5091736;28;20040;-68
2022/06/01 04:18:18;;;;;;;8.27;4.35;;;11.70;99.90;;;;;;5092718;28;20450;-68
2022/06/01 04:20:47;;;;;;;4.80;3.83;;;11.80;99.90;;;;;;5091648;28;20055;-67
2022/06/01 04:23:14;;;;;;;2.50;1.98;;;12.00;99.90;;;;;;5080660;28;20033;-67
2022/06/01 04:25:41;;;;;;;1.92;1.65;;;12.00;99.90;;;;;;5090179;28;20093;-67
2022/06/01 04:28:09;;;;;;;2.20;1.67;;;11.80;99.90;;;;;;5092552;28;20097;-67
2022/06/01 04:30:35;;;;;;;3.70;2.28;;;11.60;99.90;;;;;;5086247;28;20082;-68
2022/06/01 04:33:03;;;;;;;3.03;2.20;;;11.60;99.90;;;;;;5084645;28;20044;-67
2022/06/01 04:35:30;;;;;;;7.85;2.25;;;11.60;99.90;;;;;;5091982;28;20052;-65
2022/06/01 04:38:15;;;;;;;3.95;1.38;;;11.60;99.90;;;;;;5088492;28;20550;-65
2022/06/01 04:40:51;;;;;;;2.08;1.60;;;11.70;99.90;;;;;;5088331;28;20059;-65
2022/06/01 04:43:20;;;;;;;3.22;2.15;;;11.70;99.90;;;;;;5091795;28;20044;-68
2022/06/01 04:45:54;;;;;;;3.25;1.92;;;11.90;99.90;;;;;;5087469;28;20409;-67
2022/06/01 04:48:22;;;;;;;2.55;2.03;;;12.10;99.90;;;;;;5085192;28;20555;-67
2022/06/01 04:50:50;;;;;;;6.28;3.47;;;12.10;99.90;;;;;;5091273;28;20036;-67
2022/06/01 04:53:17;;;;;;;11.38;4.45;;;12.10;99.90;;;;;;5091732;28;20442;-67
2022/06/01 04:55:46;;;;;;;9.95;4.53;;;12.10;99.90;;;;;;5088956;28;20032;-65
2022/06/01 04:58:13;;;;;;;5.70;3.78;;;12.10;99.90;;;;;;5085739;28;20044;-67
2022/06/01 05:00:41;;;;;;;4.32;3.28;;;12.00;99.90;;;;;;5091586;28;20445;-67
2022/06/01 05:03:09;;;;;;;7.95;4.40;;;12.20;99.90;;;;;;5083499;28;20044;-67
2022/06/01 05:05:37;;;;;;;8.43;5.18;;;12.20;99.90;;;;;;5088610;28;20089;-67
2022/06/01 05:08:15;;;;;;;13.05;6.95;;;12.40;99.90;;;;;;5087631;28;20040;-67
2022/06/01 05:10:42;;;;;;;10.68;6.85;;;12.50;99.90;;;;;;5085778;28;20101;-67
2022/06/01 05:13:09;;;;;;;;;;;12.50;99.90;;;;;;5076799;28;20047;-67
2022/06/01 05:15:46;;;;;;;12.90;8.35;;;12.40;99.90;;;;;;5091649;28;19942;-67
2022/06/01 05:18:14;;;;;;;12.27;8.23;;;12.40;99.90;;;;;;5091590;28;20125;-67
2022/06/01 05:20:41;;;;;;;13.07;8.88;;;12.30;99.90;;;;;;5086330;28;20037;-67
2022/06/01 05:23:08;;;;;;;13.55;7.30;;;12.50;99.90;;;;;;5083293;28;20039;-67
2022/06/01 05:25:40;;;;;;;11.18;8.02;;;12.80;99.90;;;;;;5091583;28;20415;-67
2022/06/01 05:28:07;;;;;;;11.50;7.85;;;12.90;99.90;;;;;;5091651;28;20095;-67
2022/06/01 05:30:34;;;;;;;12.43;7.10;;;12.90;99.90;;;;;;5083198;28;20047;-66
2022/06/01 05:33:01;;;;;;;11.40;7.18;;;12.90;99.90;;;;;;5089672;28;20036;-66
2022/06/01 05:35:28;;;;;;;13.77;8.23;;;13.00;99.90;;;;;;5083992;28;20036;-67
2022/06/01 05:37:54;;;;;;;10.60;7.20;;;13.00;99.90;;;;;;5056699;28;20036;-67
2022/06/01 05:40:21;;;;;;;10.40;7.25;;;13.00;99.90;;;;;;5083093;28;20048;-65
2022/06/01 05:42:48;;;;;;;10.90;7.35;;;13.20;99.90;;;;;;5079893;28;20037;-65
2022/06/01 05:45:15;;;;;;;10.02;6.90;;;13.40;99.90;;;;;;5088995;28;20036;-65
2022/06/01 05:47:41;;;;;;;12.43;7.25;;;13.30;99.90;;;;;;5085160;28;20046;-66
2022/06/01 05:50:08;;;;;;;10.35;7.18;;;13.30;99.90;;;;;;5076186;28;20439;-65
2022/06/01 05:52:38;;;;;;;11.18;6.78;;;13.40;99.90;;;;;;5091968;28;20036;-65
2022/06/01 05:55:10;;;;;;;10.88;7.25;;;13.50;99.90;;;;;;5093832;28;20120;-65
2022/06/01 05:57:37;;;;;;;12.73;7.40;;;13.40;99.90;;;;;;5083322;28;20036;-65
2022/06/01 06:00:07;;;;;;;10.27;6.70;;;13.30;99.90;;;;;;5081886;28;20497;-65
2022/06/01 06:02:40;;;;;;;11.18;7.40;;;13.30;99.90;;;;;;5089893;28;20071;-65
2022/06/01 06:09:26;;;;;;;8.75;6.55;;;13.50;99.90;;;;;;5084459;28;20495;-65
2022/06/01 06:11:53;;;;;;;9.52;5.75;;;13.50;99.90;;;;;;5094492;28;20097;-65
2022/06/01 06:14:21;;;;;;;8.65;6.25;;;13.50;99.90;;;;;;5093775;28;20044;-65
2022/06/01 06:16:48;;;;;;;10.27;6.47;;;13.50;99.90;;;;;;5098926;28;20040;-65
2022/06/01 06:19:18;;;;;;;10.13;6.30;;;13.70;99.90;;;;;;5095036;28;20442;-65
2022/06/01 06:21:45;;;;;;;12.38;6.70;;;13.90;99.90;;;;;;5094407;28;20047;-66
2022/06/01 06:24:14;;;;;;;8.05;5.60;;;14.00;99.90;;;;;;5093741;28;20109;-65
2022/06/01 06:26:46;;;;;;;7.53;5.57;;;14.10;99.90;;;;;;5094231;28;20123;-65
2022/06/01 06:29:15;;;;;;;10.50;5.43;;;14.20;99.90;;;;;;5084621;28;20032;-65
2022/06/01 06:31:43;;;;;;;9.18;5.63;;;14.40;99.90;;;;;;5091328;28;20782;-65
2022/06/01 06:34:15;;;;;;;7.30;4.60;;;14.50;99.90;;;;;;5094126;28;20036;-65
2022/06/01 06:36:44;;;;;;;7.80;4.95;;;14.30;99.90;;;;;;5092645;28;20048;-64
2022/06/01 06:39:12;;;;;;;9.52;5.82;;;14.10;99.90;;;;;;5092527;28;20044;-65
2022/06/01 06:41:39;;;;;;;8.18;5.72;;;14.10;99.90;;;;;;5090051;28;20048;-64
2022/06/01 06:44:06;;;;;;;7.93;6.05;;;14.00;99.90;;;;;;5090108;28;20041;-65
2022/06/01 06:46:32;;;;;;;8.95;5.75;;;13.80;99.90;;;;;;5093734;28;20442;-65
2022/06/01 06:49:00;;;;;;;7.05;4.65;;;13.80;99.90;;;;;;5094020;28;20059;-65
2022/06/01 06:51:34;;;;;;;4.50;3.63;;;14.20;99.90;;;;;;5092733;28;20024;-66
2022/06/01 06:54:01;;;;;;;5.05;3.58;;;14.40;99.90;;;;;;5093463;28;20043;-65
2022/06/01 06:56:28;;;;;;;6.65;3.65;;;14.80;99.90;;;;;;5093747;28;20036;-65
2022/06/01 06:58:54;;;;;;;4.45;3.13;;;15.20;99.90;;;;;;5093510;28;20032;-66
2022/06/01 07:01:21;;;;;;;3.88;3.05;;;15.50;99.90;;;;;;5093023;28;20089;-66
2022/06/01 07:03:48;;;;;;;4.35;2.40;;;15.60;99.90;;;;;;5093069;28;20058;-65
2022/06/01 07:06:21;;;;;;;3.20;2.60;;;15.60;99.90;;;;;;5093747;28;20052;-65
2022/06/01 07:08:52;;;;;;;3.47;1.92;;;15.80;99.90;;;;;;5093928;28;20059;-66
2022/06/01 07:11:22;;;;;;;4.13;2.80;;;16.20;99.90;;;;;;5092782;28;20523;-65
2022/06/01 07:13:49;;;;;;;8.48;3.20;;;16.30;99.90;;;;;;5093784;28;20044;-66
2022/06/01 07:16:28;;;;;;;9.13;3.20;;;16.00;99.90;;;;;;5096497;28;20044;-66
2022/06/01 07:18:56;;;;;;;4.03;3.20;;;15.90;99.90;;;;;;5092947;28;20389;-66
2022/06/01 07:21:23;;;;;;;4.00;2.92;;;15.90;99.90;;;;;;5093087;28;20040;-66
2022/06/01 07:23:51;;;;;;;;;;;15.90;99.90;;;;;;5094242;28;20127;-66
2022/06/01 07:26:24;;;;;;;3.70;3.22;;;16.20;99.90;;;;;;5078432;28;19973;-66
2022/06/01 07:28:52;;;;;;;3.10;2.40;;;16.40;99.90;;;;;;5093561;28;20048;-66
2022/06/01 07:31:19;;;;;;;2.88;2.47;;;16.50;99.90;;;;;;5093016;28;20101;-66
2022/06/01 07:33:46;;;;;;;;;;;16.60;99.90;;;;;;5093890;28;20082;-66
2022/06/01 07:36:15;;;;;;;4.50;2.20;;;16.60;99.90;;;;;;5095637;28;19937;-65
2022/06/01 07:44:26;;;;;;;3.05;1.58;;;17.00;99.90;;;;;;5085093;28;20515;-65
2022/06/01 07:46:53;;;;;;;4.00;1.90;;;17.30;99.90;;;;;;5100626;28;20168;-66
2022/06/01 07:49:40;;;;;;;13.55;3.03;;;17.20;99.90;;;;;;5113525;28;20104;-65
2022/06/01 07:52:26;;;;;;;2.85;2.40;;;17.00;99.90;;;;;;5097707;28;20492;-65
2022/06/01 07:54:54;;;;;;;2.70;2.45;;;16.70;99.90;;;;;;5092651;28;20040;-65
2022/06/01 07:57:21;;;;;;;2.50;2.13;;;16.80;99.90;;;;;;5100008;28;20047;-66
2022/06/01 07:59:48;;;;;;;4.70;2.47;;;16.80;99.90;;;;;;5099074;28;20048;-65
2022/06/01 08:02:14;;;;;;;3.33;2.80;;;17.10;99.90;;;;;;5102103;28;20515;-65
2022/06/01 08:04:41;;;;;;;5.32;2.38;;;17.10;99.90;;;;;;5092850;28;20040;-65
2022/06/01 08:07:09;;;;;;;3.03;2.60;;;17.20;99.90;;;;;;5092918;28;20040;-65
2022/06/01 08:09:36;;;;;;;2.85;2.28;;;17.20;99.90;;;;;;5091555;28;20516;-66
2022/06/01 08:14:49;;;;;;;4.32;2.65;;;17.40;99.90;;;;;;5102187;28;20058;-65
2022/06/01 08:17:15;;;;;;;5.25;2.70;;;17.50;99.90;;;;;;5104559;28;20113;-66
2022/06/01 08:19:45;;;;;;;2.70;2.05;;;17.60;99.90;;;;;;5083990;28;20040;-65
2022/06/01 08:22:12;;;;;;;3.83;2.63;;;17.70;99.90;;;;;;5092167;28;20040;-65
2022/06/01 08:24:39;;;;;;;3.28;2.45;;;17.70;99.90;;;;;;5092503;28;20051;-65
2022/06/01 08:27:06;;;;;;;3.67;1.98;;;17.60;99.90;;;;;;5092492;28;20438;-65
2022/06/01 08:29:32;;;;;;;;;;;17.80;99.90;;;;;;5096656;28;20111;-66
2022/06/01 08:31:59;;;;;;;2.40;2.20;;;17.90;99.90;;;;;;5081416;28;19932;-65
2022/06/01 08:34:26;;;;;;;2.35;2.15;;;18.10;99.90;;;;;;5082400;28;20068;-66
2022/06/01 08:36:53;;;;;;;4.63;2.08;;;18.10;99.90;;;;;;5085180;28;20617;-65
2022/06/01 08:39:19;;;;;;;2.42;2.20;;;18.30;99.90;;;;;;5079741;28;20040;-65
2022/06/01 08:41:47;;;;;;;2.83;2.20;;;18.40;99.90;;;;;;5075534;28;20040;-66
2022/06/01 08:44:36;;;;;;;2.50;2.17;;;18.40;99.90;;;;;;5091956;28;20114;-66
2022/06/01 08:47:07;;;;;;;2.05;1.80;;;18.60;99.90;;;;;;5092108;28;20044;-66
2022/06/01 08:49:35;;;;;;;2.65;1.83;;;18.70;99.90;;;;;;5090965;28;20488;-65
2022/06/01 08:52:03;;;;;;;3.08;1.90;;;18.90;99.90;;;;;;5091651;28;20032;-66
2022/06/01 08:54:30;;;;;;;3.25;2.10;;;19.10;99.90;;;;;;5074193;28;20400;-66
2022/06/01 08:57:04;;;;;;;;;;;19.20;99.90;;;;;;5072070;28;20044;-65
2022/06/01 09:00:03;;;;;;;4.63;1.85;;;19.10;99.90;;;;;;5079492;28;19928;-66
2022/06/01 09:02:39;;;;;;;;;;;19.20;99.90;;;;;;5084416;28;20527;-66
2022/06/01 09:05:21;;;;;;;2.05;1.80;;;19.30;99.90;;;;;;5091501;28;19925;-65
2022/06/01 09:07:58;;;;;;;1.85;1.63;;;19.50;99.90;;;;;;5090908;28;20516;-64
2022/06/01 09:10:42;;;;;;;3.53;1.75;;;19.60;99.90;;;;;;5091226;28;20044;-66
2022/06/01 09:13:12;;;;;;;1.40;1.25;;;19.60;99.90;;;;;;5071594;28;20047;-66
2022/06/01 09:15:58;;;;;;;3.63;1.70;;;19.60;99.90;;;;;;5071354;28;20041;-66
2022/06/01 09:18:29;;;;;;;1.90;1.50;;;19.80;99.90;;;;;;5087262;28;20047;-67
2022/06/01 09:23:43;;;;;;;2.83;1.80;;;19.70;99.90;;;;;;5090915;28;20077;-66
2022/06/01 09:26:27;;;;;;;2.35;1.70;;;19.70;99.90;;;;;;5090885;28;20048;-66
2022/06/01 09:28:56;;;;;;;5.00;1.50;;;19.80;99.90;;;;;;5091654;28;20052;-66
2022/06/01 09:31:28;;;;;;;2.65;1.73;;;19.80;99.90;;;;;;5090131;28;20044;-66
2022/06/01 09:34:16;;;;;;;1.90;1.55;;;20.00;99.90;;;;;;5091391;28;20040;-66
2022/06/01 09:37:13;;;;;;;3.25;2.05;;;20.20;99.90;;;;;;5091347;28;20044;-66
2022/06/01 09:39:50;;;;;;;3.30;1.60;;;20.30;99.90;;;;;;5062810;28;20105;-66
2022/06/01 09:42:25;;;;;;;3.33;2.05;;;20.40;99.90;;;;;;5090468;28;20081;-66
2022/06/01 09:44:57;;;;;;;1.52;1.42;;;20.50;99.90;;;;;;5091298;28;20044;-66
2022/06/01 09:47:35;;;;;;;3.83;1.75;;;20.80;99.90;;;;;;5091036;28;20040;-66
2022/06/01 09:50:06;;;;;;;1.85;1.65;;;21.00;99.90;;;;;;5081383;28;20109;-66
2022/06/01 09:52:40;;;;;;;5.65;2.00;;;21.10;99.90;;;;;;5084638;28;20566;-66
2022/06/01 09:55:12;;;;;;;4.93;1.58;;;21.30;99.90;;;;;;5080457;28;20036;-66
2022/06/01 09:57:39;;;;;;;1.90;1.73;;;21.30;99.90;;;;;;5078911;28;20082;-66
2022/06/01 10:06:31;;;;;;;2.35;1.42;;;22.00;99.90;;;;;;5091042;28;20055;-66
2022/06/01 10:09:08;;;;;;;1.88;1.40;;;22.40;99.90;;;;;;5089819;28;20032;-66
2022/06/01 10:11:40;;;;;;;;;;;22.40;99.90;;;;;;5091266;28;20044;-66
2022/06/01 10:14:18;;;;;;;3.05;1.75;;;22.50;99.90;;;;;;5090656;28;19920;-66
2022/06/01 10:16:54;;;;;;;4.50;1.58;;;22.50;99.90;;;;;;5089988;28;20039;-66
2022/06/01 10:19:28;;;;;;;1.73;1.38;;;22.70;99.90;;;;;;5090989;28;20046;-66
2022/06/01 10:21:55;;;;;;;6.13;1.50;;;22.80;99.90;;;;;;5090414;28;20036;-66
2022/06/01 10:24:32;;;;;;;3.95;1.40;;;23.10;99.90;;;;;;5089526;28;20094;-66
2022/06/01 10:27:00;;;;;;;2.47;1.40;;;23.20;99.90;;;;;;5082826;28;20043;-66
2022/06/01 10:29:38;;;;;;;1.45;1.20;;;23.30;99.90;;;;;;5090987;28;20040;-66
2022/06/01 10:32:38;;;;;;;4.38;1.58;;;23.10;99.90;;;;;;5072273;28;20458;-66
2022/06/01 10:35:25;;;;;;;2.72;1.25;;;23.00;99.90;;;;;;5089624;28;20036;-66
2022/06/01 10:38:02;;;;;;;1.85;1.35;;;23.00;99.90;;;;;;5074761;28;20389;-66
2022/06/01 10:40:37;;;;;;;1.67;1.10;;;23.10;99.90;;;;;;5094799;28;20039;-66
2022/06/01 10:43:38;;;;;;;3.47;1.80;;;23.30;99.90;;;;;;5094595;28;20043;-66
2022/06/01 10:46:11;;;;;;;1.52;1.20;;;23.70;99.90;;;;;;5087056;28;20036;-66
2022/06/01 10:48:47;;;;;;;3.00;1.23;;;23.80;99.90;;;;;;5094531;28;20052;-66
2022/06/01 10:51:21;;;;;;;1.20;1.10;;;23.70;99.90;;;;;;5092617;28;20051;-66
2022/06/01 10:54:13;;;;;;;3.13;1.10;;;23.50;99.20;;;;;;5094401;28;20415;-66
2022/06/01 10:56:41;;;;;;;1.55;1.10;;;23.50;99.90;;;;;;5094479;28;20044;-66
2022/06/01 10:59:16;;;;;;;1.42;1.05;;;23.60;98.50;;;;;;5094166;28;20101;-66
2022/06/01 11:02:02;;;;;;;1.02;1.00;;;23.70;99.80;;;;;;5092964;28;20067;-66
2022/06/01 11:05:03;;;;;;;2.45;1.30;;;24.00;99.70;;;;;;5093586;28;20408;-66
2022/06/01 11:07:49;;;;;;;3.45;2.00;;;24.30;99.20;;;;;;5093973;28;20101;-66
2022/06/01 11:10:34;;;;;;;3.20;1.25;;;23.80;99.90;;;;;;5092429;28;20047;-66
2022/06/01 11:13:40;;;;;;;1.73;1.40;;;23.50;99.90;;;;;;5086146;28;20036;-66
2022/06/01 11:16:25;;;;;;;3.80;1.20;;;23.50;98.20;;;;;;5093668;28;20051;-66
2022/06/01 11:19:00;;;;;;;3.25;1.45;;;23.70;98.90;;;;;;5092633;28;20130;-66
2022/06/01 11:21:40;;;;;;;3.78;1.38;;;23.70;99.60;;;;;;5093244;28;20050;-66
2022/06/01 11:24:42;;;;;;;1.77;1.40;;;23.60;99.00;;;;;;5093485;28;20048;-66
2022/06/01 11:27:50;;;;;;;2.58;1.40;;;23.40;99.90;;;;;;5092628;28;20451;-66
2022/06/01 11:30:19;;;;;;;2.57;1.50;;;23.30;99.90;;;;;;5046864;28;20048;-66
2022/06/01 11:32:46;;;;;;;3.20;1.65;;;22.90;99.90;;;;;;5093669;28;20041;-66
2022/06/01 11:35:40;;;;;;;5.28;1.77;;;22.70;99.90;;;;;;5093175;28;20044;-66
2022/06/01 11:38:18;;;;;;;2.92;1.60;;;22.80;99.90;;;;;;5072077;28;20112;-66
2022/06/01 11:40:57;;;;;;;3.08;1.83;;;22.90;99.90;;;;;;5092960;28;20040;-66
2022/06/01 11:43:30;;;;;;;1.98;1.40;;;23.10;99.90;;;;;;5075262;28;20039;-66
2022/06/01 11:46:13;;;;;;;2.88;1.35;;;23.10;99.90;;;;;;5083672;28;20036;-66
2022/06/01 11:48:46;;;;;;;1.55;1.45;;;23.20;99.90;;;;;;5093117;28;20036;-66
2022/06/01 11:51:15;;;;;;;2.42;1.60;;;23.30;99.90;;;;;;5092674;28;20047;-66
2022/06/01 11:54:01;;;;;;;4.97;1.90;;;23.50;99.90;;;;;;5091850;28;20561;-66
2022/06/01 11:56:43;;;;;;;6.15;1.77;;;23.40;99.90;;;;;;5092763;28;20032;-66
2022/06/01 11:59:26;;;;;;;2.08;1.33;;;23.00;99.90;;;;;;5093089;28;20044;-66
2022/06/01 12:02:40;;;;;;;3.25;1.88;;;22.70;99.90;;;;;;5092378;28;20050;-66
2022/06/01 12:05:12;;;;;;;5.28;1.60;;;22.50;99.90;;;;;;5102727;22;20390;-66
2022/06/01 12:07:50;;;;;;;2.85;1.80;;;22.50;99.90;;;;;;5103222;28;20055;-65
2022/06/01 12:10:25;;;;;;;6.85;1.70;;;22.40;99.90;;;;;;5100402;28;20036;-68
2022/06/01 12:12:55;;;;;;;2.53;1.75;;;22.40;99.90;;;;;;5112583;28;20044;-68
2022/06/01 12:15:29;;;;;;;7.15;1.73;;;22.40;99.90;;;;;;5094840;28;20059;-64
2022/06/01 12:18:11;;;;;;;5.85;1.75;;;22.30;99.90;;;;;;5108570;28;20047;-65
2022/06/01 12:20:38;;;;;;;3.42;1.80;;;21.90;99.90;;;;;;5101239;28;20059;-67
2022/06/01 12:28:51;;;;;;;4.07;1.90;;;22.00;99.90;;;;;;5088722;28;20036;-65
2022/06/01 12:31:37;;;;;;;4.47;1.70;;;21.80;99.90;;;;;;5076153;28;20048;-65
2022/06/01 12:34:03;;;;;;;5.43;1.88;;;21.90;99.90;;;;;;5082799;28;20141;-66
2022/06/01 12:36:36;;;;;;;5.20;1.80;;;22.40;99.90;;;;;;5082688;28;20032;-66
2022/06/01 12:39:08;;;;;;;7.25;1.98;;;22.90;99.90;;;;;;5076914;28;20036;-66
2022/06/01 12:41:36;;;;;;;3.72;1.98;;;23.10;99.90;;;;;;5077192;28;20043;-66
2022/06/01 12:44:08;;;;;;;2.40;1.73;;;23.00;99.90;;;;;;5085538;28;20423;-66
2022/06/01 12:46:41;;;;;;;2.47;1.73;;;22.60;99.90;;;;;;5086393;28;20032;-67
2022/06/01 12:49:30;;;;;;;4.15;1.85;;;22.40;99.90;;;;;;5081216;28;20036;-66
2022/06/01 12:52:01;;;;;;;2.55;1.85;;;22.90;99.90;;;;;;5094503;28;20484;-67
2022/06/01 12:54:37;;;;;;;3.17;2.05;;;22.90;99.90;;;;;;5103972;28;20051;-67
2022/06/01 12:57:07;;;;;;;2.58;1.50;;;22.80;99.50;;;;;;5094104;28;20039;-67
2022/06/01 12:59:38;;;;;;;3.03;1.90;;;22.70;99.90;;;;;;5111206;28;20052;-67
2022/06/01 13:02:09;;;;;;;4.07;1.48;;;22.50;99.90;;;;;;5092117;28;20454;-66
2022/06/01 13:04:39;;;;;;;3.78;1.50;;;22.30;99.90;;;;;;5109244;28;20075;-66
2022/06/01 13:07:08;;;;;;;3.85;1.90;;;22.10;99.90;;;;;;5112066;28;20035;-66
2022/06/01 13:09:36;;;;;;;5.63;1.90;;;22.00;99.90;;;;;;5108930;28;20085;-67
2022/06/01 13:12:14;;;;;;;3.80;1.98;;;22.00;99.90;;;;;;5103910;28;20036;-67
2022/06/01 13:14:41;;;;;;;2.83;1.80;;;22.00;99.90;;;;;;5112157;28;20097;-67
2022/06/01 13:17:11;;;;;;;;;;;22.00;99.90;;;;;;5094453;28;20051;-66
2022/06/01 13:19:39;;;;;;;3.28;1.90;;;21.80;99.90;;;;;;5106031;28;19919;-66
2022/06/01 13:22:22;;;;;;;3.67;1.80;;;21.70;99.90;;;;;;5104405;28;20044;-67
2022/06/01 13:24:54;;;;;;;4.18;1.80;;;21.70;99.90;;;;;;5092992;28;20040;-67
2022/06/01 13:27:23;;;;;;;1.92;1.73;;;22.10;99.90;;;;;;5081510;28;20056;-67
2022/06/01 13:29:58;;;;;;;3.72;1.77;;;22.70;99.90;;;;;;5084946;28;20048;-67
2022/06/01 13:32:34;;;;;;;4.15;1.63;;;22.90;99.90;;;;;;5073951;28;20054;-67
2022/06/01 13:35:22;;;;;;;2.08;1.50;;;22.90;99.90;;;;;;5071855;28;20056;-66
2022/06/01 13:37:53;;;;;;;1.83;1.55;;;22.60;99.90;;;;;;5083897;28;20055;-67
2022/06/01 13:40:27;;;;;;;2.63;1.55;;;22.30;99.90;;;;;;5111324;28;20047;-66
2022/06/01 13:43:16;;;;;;;3.85;1.92;;;22.30;99.90;;;;;;5111862;28;20048;-67
2022/06/01 13:45:54;;;;;;;4.18;1.85;;;22.40;99.50;;;;;;5106495;28;20110;-66